Santa Cruz, Brazil

10:01 PM BRT on October 01, 2014 (GMT -0300)
Santa Cruz Air Base | Change Station
CLOSE
Current Station
Airport
Location: Santa Cruz,
Elevation: 10 ft
Nearby Weather Stations

Elev 10 ft 22.93 °S, 43.72 °W | Updated 1 hour ago

Mostly Cloudy
Mostly Cloudy
75 °F
Feels Like 75 °F
N
14
Wind Variable Wind from WSW

Today
High -- | Low -- °F
--% Chance of Precip.
Yesterday
High -- | Low -- °F
Precip. -- in
5:35 AM 5:53 PM
First Quarter, 53% visible
Pressure 30.04 in
Visibility 6.2 miles
Clouds Few 3000 ft
Mostly Cloudy 5000 ft
Dew Point 64 °F
Humidity 69%
Rainfall 0.00 in
Snow Depth Not available.
UV 0 out of 12
Pollen Not available.
Air Quality Not available.
Flu Activity Not available.
METAR SBSC 020000Z 24012KT 9999 FEW030 BKN050 24/18 Q1017

More Conditions Fewer Conditions

Pressure 30.04 in
Visibility 6.2 miles
Clouds Few 3000 ft
Mostly Cloudy 5000 ft
Dew Point 64 °F
Humidity 69%
Rainfall 0.00 in
Snow Depth Not available.
UV 0 out of 12
Pollen Not available.
Air Quality Not available.
Flu Activity Not available.
METAR SBSC 020000Z 24012KT 9999 FEW030 BKN050 24/18 Q1017

More Conditions Fewer Conditions

10-Day Weather Forecast

Almanac

Astronomy

Oct. 01, 2014 Rise Set
Actual Time 5:35 AM BRT 5:53 PM BRT
Civil Twilight 5:13 AM BRT 6:16 PM BRT
Nautical Twilight 4:46 AM BRT 6:42 PM BRT
Astronomical Twilight 4:20 AM BRT 7:09 PM BRT
Moon 11:05 AM BRT (10/1) No Moon Set
Length of Visible Light 13h 03m
Length of Day
12h 18m
Tomorrow will be 1m 20s longer.
First Quarter, 53% of the Moon is Illuminated
Today
First Quarter
Oct 8
Full
Oct 15
Last Quarter
Oct 23
New
Oct 30
First Quarter

Today's Extremes

Country Highs Country Lows

Community

WunderPhotos

Upload Photos

1,758,109 photos uploaded!

WunderBlogs® & News

Nearby

Snow Depth

Not available.

Earthquake Activity

City Distance Mag. Time & Date
No recent earthquake activity has been reported nearby.
Minimum magnitude displayed is 2.5.

Coastal Water Temperatures

Place Temperature
No Stations Reporting

Nearby Weather Stations